Time;durP1;ratioP1;P1;durP2;ratioP2;P2;SDS_P1;SDS_P2;PMS_P1;PMS_P2;Temp;Humidity;BMP_temperature;BMP_pressure;BME280_temperature;BME280_humidity;BME280_pressure;Samples;Min_cycle;Max_cycle;Signal;HPM_P1;HPM_P2
2022/12/30 00:02:00;;;;;;;1.23;0.55;;;7.30;99.90;;;;;;5028260;28;20043;-69
2022/12/30 00:04:26;;;;;;;0.20;0.20;;;7.30;99.90;;;;;;5027734;28;20053;-70
2022/12/30 00:06:52;;;;;;;0.10;0.10;;;7.30;99.90;;;;;;5028656;28;20057;-69
2022/12/30 00:09:17;;;;;;;0.40;0.40;;;7.30;99.90;;;;;;5025697;28;20121;-69
2022/12/30 00:11:43;;;;;;;0.65;0.65;;;7.30;99.90;;;;;;5027762;28;20092;-70
2022/12/30 00:34:35;;;;;;;0.63;0.63;;;7.20;99.90;;;;;;5028420;28;20041;-69
2022/12/30 00:37:01;;;;;;;0.10;0.10;;;7.20;99.90;;;;;;5019243;28;20778;-69
2022/12/30 00:39:27;;;;;;;0.30;0.30;;;7.20;99.90;;;;;;5025502;28;20103;-69
2022/12/30 00:44:36;;;;;;;1.02;1.02;;;7.20;99.90;;;;;;5026369;28;20200;-69
2022/12/30 00:47:04;;;;;;;1.13;1.02;;;7.20;99.90;;;;;;5038169;28;20158;-70
2022/12/30 00:57:42;;;;;;;0.10;0.10;;;7.20;99.90;;;;;;5027929;28;20061;-70
2022/12/30 01:00:10;;;;;;;0.30;0.30;;;7.10;99.90;;;;;;5028488;28;20120;-69
2022/12/30 01:02:36;;;;;;;0.10;0.10;;;7.10;99.90;;;;;;5026437;28;20077;-69
2022/12/30 01:05:02;;;;;;;0.10;0.10;;;7.10;99.90;;;;;;5024162;28;20103;-69
2022/12/30 01:07:28;;;;;;;0.10;0.10;;;7.10;99.90;;;;;;5021036;28;20073;-69
2022/12/30 01:09:55;;;;;;;0.10;0.10;;;7.10;99.90;;;;;;5027251;28;20046;-69
2022/12/30 01:12:20;;;;;;;0.17;0.17;;;7.00;99.90;;;;;;5027881;28;20049;-69
2022/12/30 01:14:50;;;;;;;0.52;0.52;;;7.00;99.90;;;;;;5028223;28;20676;-69
2022/12/30 01:17:19;;;;;;;0.95;0.95;;;7.00;99.90;;;;;;5028599;28;20048;-69
2022/12/30 01:19:44;;;;;;;0.10;0.10;;;7.00;99.90;;;;;;5027059;28;20053;-69
2022/12/30 01:22:10;;;;;;;0.60;0.60;;;7.00;99.90;;;;;;5028628;28;20056;-69
2022/12/30 01:24:37;;;;;;;0.35;0.35;;;7.00;99.90;;;;;;5029183;28;20099;-70
2022/12/30 01:27:02;;;;;;;0.10;0.10;;;6.90;99.90;;;;;;5027109;28;20922;-69
2022/12/30 01:29:32;;;;;;;0.13;0.13;;;6.90;99.90;;;;;;5026963;28;20049;-69
2022/12/30 01:31:58;;;;;;;0.10;0.10;;;6.90;99.90;;;;;;5023197;28;20050;-70
2022/12/30 01:34:24;;;;;;;4.07;3.17;;;6.90;99.90;;;;;;5028472;28;20045;-70
2022/12/30 01:36:50;;;;;;;0.20;0.20;;;6.80;99.90;;;;;;5023452;28;20046;-69
2022/12/30 01:39:16;;;;;;;4.75;1.45;;;6.80;99.90;;;;;;5020706;28;20054;-70
2022/12/30 01:41:42;;;;;;;0.15;0.15;;;6.80;99.90;;;;;;5027001;28;20106;-69
2022/12/30 01:44:45;;;;;;;3.42;0.57;;;6.70;99.90;;;;;;5027700;28;20524;-69
2022/12/30 01:47:18;;;;;;;0.10;0.10;;;6.70;99.90;;;;;;5018412;28;20061;-69
2022/12/30 01:49:46;;;;;;;0.10;0.10;;;6.70;99.90;;;;;;5026788;28;20579;-69
2022/12/30 01:52:14;;;;;;;0.00;0.00;;;6.70;99.90;;;;;;5019421;28;20091;-69
2022/12/30 01:54:39;;;;;;;0.20;0.20;;;6.70;99.90;;;;;;5025316;28;20083;-69
2022/12/30 01:57:06;;;;;;;0.98;0.88;;;6.60;99.90;;;;;;5025614;28;20061;-69
2022/12/30 01:59:32;;;;;;;0.20;0.20;;;6.60;99.90;;;;;;5024326;28;20479;-69
2022/12/30 02:01:58;;;;;;;0.40;0.40;;;6.60;99.90;;;;;;5025347;28;20413;-69
2022/12/30 02:04:27;;;;;;;0.10;0.10;;;6.60;99.90;;;;;;5023998;28;20081;-70
2022/12/30 02:07:05;;;;;;;2.08;1.00;;;6.60;99.90;;;;;;5026726;28;20041;-69
2022/12/30 02:09:32;;;;;;;62.92;3.58;;;6.60;99.90;;;;;;5027112;28;20045;-69
2022/12/30 02:11:59;;;;;;;0.75;0.75;;;6.60;99.90;;;;;;5025141;28;20430;-69
2022/12/30 02:14:27;;;;;;;0.03;0.03;;;6.60;99.90;;;;;;5028270;28;20049;-69
2022/12/30 02:17:17;;;;;;;0.10;0.10;;;6.60;99.90;;;;;;5026633;28;20033;-69
2022/12/30 02:20:19;;;;;;;0.10;0.10;;;6.60;99.90;;;;;;5026915;28;20481;-69
2022/12/30 02:23:07;;;;;;;0.10;0.10;;;6.60;99.90;;;;;;5025154;28;20076;-70
2022/12/30 02:25:39;;;;;;;0.52;0.52;;;6.60;99.90;;;;;;5018790;28;20397;-69
2022/12/30 02:28:52;;;;;;;0.47;0.47;;;6.60;99.90;;;;;;5027603;28;20432;-69
2022/12/30 02:31:49;;;;;;;1.35;1.25;;;6.60;99.90;;;;;;5023689;28;20080;-69
2022/12/30 02:34:21;;;;;;;0.38;0.38;;;6.60;99.90;;;;;;5025800;28;20733;-68
2022/12/30 02:37:34;;;;;;;0.10;0.10;;;6.70;99.90;;;;;;5026815;28;20081;-68
2022/12/30 02:40:12;;;;;;;0.10;0.10;;;6.70;99.90;;;;;;5007314;28;20049;-68
2022/12/30 02:45:58;;;;;;;0.10;0.10;;;6.70;99.90;;;;;;5018317;28;20065;-68
2022/12/30 02:48:27;;;;;;;0.10;0.10;;;6.70;99.90;;;;;;5027500;28;20064;-68
2022/12/30 02:53:41;;;;;;;0.00;0.00;;;6.70;99.90;;;;;;5026000;28;20053;-67
2022/12/30 02:56:07;;;;;;;0.10;0.10;;;6.60;99.90;;;;;;5026398;28;20133;-67
2022/12/30 02:58:37;;;;;;;0.52;0.52;;;6.60;99.90;;;;;;5025358;28;20156;-67
2022/12/30 03:04:29;;;;;;;0.10;0.10;;;6.50;99.90;;;;;;5028554;28;20500;-69
2022/12/30 03:07:04;;;;;;;0.10;0.10;;;6.40;99.90;;;;;;5027003;28;20090;-69
2022/12/30 03:12:47;;;;;;;0.10;0.10;;;6.50;99.90;;;;;;5026763;28;20061;-69
2022/12/30 03:15:26;;;;;;;0.10;0.10;;;6.40;99.90;;;;;;5020505;28;20046;-69
2022/12/30 03:17:52;;;;;;;0.30;0.30;;;6.40;99.90;;;;;;5028706;28;20053;-70
2022/12/30 03:20:22;;;;;;;0.08;0.08;;;6.40;99.90;;;;;;5024373;28;20409;-69
2022/12/30 03:28:26;;;;;;;0.57;0.57;;;6.30;99.90;;;;;;5021081;28;20092;-69
2022/12/30 03:30:59;;;;;;;0.10;0.10;;;6.40;99.90;;;;;;5030213;28;20045;-70
2022/12/30 03:33:30;;;;;;;0.50;0.50;;;6.30;99.90;;;;;;5029658;28;20485;-69
2022/12/30 03:36:06;;;;;;;0.10;0.10;;;6.30;99.90;;;;;;5026322;28;20554;-69
2022/12/30 03:38:36;;;;;;;4.38;1.88;;;6.30;99.90;;;;;;5029999;28;20041;-69
2022/12/30 03:41:03;;;;;;;0.10;0.10;;;6.20;99.90;;;;;;5026038;28;20045;-69
2022/12/30 03:43:30;;;;;;;0.10;0.10;;;6.10;99.90;;;;;;5027180;28;20045;-69
2022/12/30 03:45:55;;;;;;;0.10;0.10;;;6.10;99.90;;;;;;5027410;28;20053;-69
2022/12/30 03:48:21;;;;;;;0.10;0.10;;;6.10;99.90;;;;;;5027383;28;20512;-69
2022/12/30 03:50:46;;;;;;;0.00;0.00;;;6.10;99.90;;;;;;5029547;28;20805;-69
2022/12/30 03:53:12;;;;;;;1.02;1.02;;;6.10;99.90;;;;;;5027920;28;20033;-69
2022/12/30 03:55:37;;;;;;;0.20;0.20;;;6.10;99.90;;;;;;5022310;28;20382;-69
2022/12/30 03:58:03;;;;;;;4.82;3.05;;;6.10;99.90;;;;;;5028282;28;20053;-69
2022/12/30 04:00:28;;;;;;;0.10;0.10;;;6.10;99.90;;;;;;5026288;28;20042;-69
2022/12/30 04:02:54;;;;;;;6.25;1.95;;;6.10;99.90;;;;;;5024718;28;20130;-69
2022/12/30 04:05:19;;;;;;;0.70;0.70;;;6.10;99.90;;;;;;5031039;28;20041;-69
2022/12/30 04:07:45;;;;;;;0.10;0.10;;;6.10;99.90;;;;;;5028491;28;20085;-69
2022/12/30 04:10:11;;;;;;;0.17;0.17;;;6.10;99.90;;;;;;5028678;28;20038;-69
2022/12/30 04:12:36;;;;;;;0.10;0.10;;;6.20;99.90;;;;;;5029845;28;20080;-69
2022/12/30 04:15:02;;;;;;;0.93;0.82;;;6.20;99.90;;;;;;5027331;28;20205;-69
2022/12/30 04:17:28;;;;;;;3.97;1.13;;;6.20;99.90;;;;;;5028077;28;20046;-69
2022/12/30 04:19:53;;;;;;;0.68;0.68;;;6.20;99.90;;;;;;5029109;28;20037;-70
2022/12/30 04:22:19;;;;;;;0.60;0.60;;;6.20;99.90;;;;;;5027546;28;20040;-69
2022/12/30 04:24:44;;;;;;;0.93;0.93;;;6.20;99.90;;;;;;5026798;28;20127;-69
2022/12/30 04:27:10;;;;;;;2.35;1.75;;;6.20;99.90;;;;;;5028985;28;20479;-69
2022/12/30 04:29:35;;;;;;;0.20;0.20;;;6.20;99.90;;;;;;5025420;28;20053;-69
2022/12/30 04:32:01;;;;;;;0.10;0.10;;;6.20;99.90;;;;;;5022925;28;20052;-69
2022/12/30 04:34:27;;;;;;;3.38;1.15;;;6.10;99.90;;;;;;5029699;28;20075;-69
2022/12/30 04:36:52;;;;;;;0.30;0.30;;;6.10;99.90;;;;;;5029020;28;20477;-68
2022/12/30 04:39:18;;;;;;;0.10;0.10;;;6.10;99.90;;;;;;5027502;28;20037;-69
2022/12/30 04:41:43;;;;;;;0.32;0.32;;;6.20;99.90;;;;;;5029067;28;20045;-69
2022/12/30 04:44:09;;;;;;;2.63;1.52;;;6.10;99.90;;;;;;5027047;28;20056;-69
2022/12/30 04:46:35;;;;;;;0.20;0.20;;;6.10;99.90;;;;;;5028424;28;20475;-69
2022/12/30 04:49:00;;;;;;;0.10;0.10;;;6.10;99.90;;;;;;5026484;28;20604;-69
2022/12/30 04:51:26;;;;;;;0.10;0.10;;;6.20;99.90;;;;;;5029284;28;20053;-69
2022/12/30 04:53:52;;;;;;;2.70;1.90;;;6.20;99.90;;;;;;5023157;28;20042;-68
2022/12/30 04:56:18;;;;;;;0.10;0.10;;;6.30;99.90;;;;;;5026355;28;20132;-68
2022/12/30 04:58:43;;;;;;;0.43;0.43;;;6.30;99.90;;;;;;5015788;28;20053;-69
2022/12/30 05:01:09;;;;;;;0.20;0.20;;;6.30;99.90;;;;;;5028337;28;20045;-68
2022/12/30 05:03:35;;;;;;;0.10;0.10;;;6.40;99.90;;;;;;5028167;28;20544;-69
2022/12/30 05:06:00;;;;;;;0.25;0.25;;;6.40;99.90;;;;;;5023024;28;20095;-69
2022/12/30 05:08:26;;;;;;;0.28;0.28;;;6.50;99.90;;;;;;5028645;28;20045;-69
2022/12/30 05:10:52;;;;;;;1.65;1.55;;;6.50;99.90;;;;;;5023685;28;20053;-69
2022/12/30 05:13:17;;;;;;;0.30;0.30;;;6.50;99.90;;;;;;5026593;28;20050;-69
2022/12/30 05:15:43;;;;;;;0.60;0.60;;;6.50;99.90;;;;;;5025149;28;20810;-69
2022/12/30 05:18:10;;;;;;;0.10;0.10;;;6.50;99.90;;;;;;5029344;28;20037;-69
2022/12/30 05:20:36;;;;;;;0.10;0.10;;;6.50;99.90;;;;;;5027471;28;20072;-69
2022/12/30 05:23:01;;;;;;;1.05;0.98;;;6.50;99.90;;;;;;5025547;28;20497;-69
2022/12/30 05:28:11;;;;;;;3.63;2.28;;;6.50;99.90;;;;;;5026078;28;20452;-69
2022/12/30 05:30:37;;;;;;;0.10;0.10;;;6.60;99.90;;;;;;5027820;28;20037;-69
2022/12/30 05:33:03;;;;;;;0.15;0.15;;;6.60;99.90;;;;;;5026981;28;20053;-69
2022/12/30 05:35:28;;;;;;;0.10;0.10;;;6.60;99.90;;;;;;5027881;28;20044;-69
2022/12/30 05:37:54;;;;;;;0.20;0.20;;;6.50;99.90;;;;;;5025462;28;20410;-68
2022/12/30 05:40:20;;;;;;;0.30;0.30;;;6.60;99.90;;;;;;5023715;28;20041;-69
2022/12/30 05:42:46;;;;;;;0.10;0.10;;;6.50;99.90;;;;;;5037254;28;20128;-69
2022/12/30 05:45:12;;;;;;;2.88;2.63;;;6.60;99.90;;;;;;5025694;28;20083;-68
2022/12/30 05:47:37;;;;;;;0.20;0.20;;;6.50;99.90;;;;;;5025009;28;20053;-69
2022/12/30 05:50:03;;;;;;;0.10;0.10;;;6.50;99.90;;;;;;5025428;28;20049;-69
2022/12/30 05:52:29;;;;;;;0.65;0.57;;;6.60;99.90;;;;;;5023569;28;20046;-68
2022/12/30 05:54:56;;;;;;;0.10;0.10;;;6.50;99.90;;;;;;5026881;28;20043;-68
2022/12/30 05:57:21;;;;;;;0.32;0.32;;;6.60;99.90;;;;;;5027230;28;20045;-68
2022/12/30 05:59:47;;;;;;;0.10;0.10;;;6.50;99.90;;;;;;5026965;28;20163;-69
2022/12/30 06:02:12;;;;;;;0.10;0.10;;;6.50;99.90;;;;;;5020283;28;20045;-68
2022/12/30 06:04:38;;;;;;;0.10;0.10;;;6.50;99.90;;;;;;5027210;28;20532;-69
2022/12/30 06:07:04;;;;;;;0.20;0.20;;;6.60;99.90;;;;;;5027139;28;20405;-69
2022/12/30 06:09:29;;;;;;;0.40;0.40;;;6.60;99.90;;;;;;5027342;28;20042;-69
2022/12/30 06:11:55;;;;;;;0.10;0.10;;;6.60;99.90;;;;;;5027257;28;20053;-69
2022/12/30 06:14:22;;;;;;;0.55;0.55;;;6.60;99.90;;;;;;5026864;28;20041;-68
2022/12/30 06:16:48;;;;;;;0.13;0.13;;;6.50;99.90;;;;;;5027384;28;20406;-69
2022/12/30 06:19:13;;;;;;;0.55;0.55;;;6.50;99.90;;;;;;5027384;28;20047;-69
2022/12/30 06:21:39;;;;;;;0.10;0.10;;;6.50;99.90;;;;;;5022973;28;20100;-68
2022/12/30 06:24:06;;;;;;;0.10;0.10;;;6.50;99.90;;;;;;5026764;28;20037;-69
2022/12/30 06:26:32;;;;;;;0.40;0.40;;;6.40;99.90;;;;;;5025471;28;20046;-69
2022/12/30 06:28:58;;;;;;;4.10;2.08;;;6.40;99.90;;;;;;5027181;28;20865;-69
2022/12/30 06:31:23;;;;;;;0.20;0.20;;;6.40;99.90;;;;;;5026120;28;20045;-70
2022/12/30 06:33:49;;;;;;;0.10;0.10;;;6.40;99.90;;;;;;5028091;28;20117;-69
2022/12/30 06:36:14;;;;;;;0.20;0.20;;;6.40;99.90;;;;;;5028293;28;20436;-69
2022/12/30 06:38:40;;;;;;;0.43;0.43;;;6.40;99.90;;;;;;5021816;28;20501;-69
2022/12/30 06:41:06;;;;;;;0.38;0.38;;;6.40;99.90;;;;;;5030471;28;20041;-68
2022/12/30 06:43:32;;;;;;;0.10;0.10;;;6.30;99.90;;;;;;5031682;28;20416;-69
2022/12/30 06:45:58;;;;;;;5.22;4.47;;;6.30;99.90;;;;;;5031095;28;20120;-68
2022/12/30 06:48:23;;;;;;;0.10;0.10;;;6.30;99.90;;;;;;5030295;28;20420;-69
2022/12/30 06:50:49;;;;;;;0.10;0.10;;;6.30;99.90;;;;;;5031797;28;20140;-68
2022/12/30 06:53:15;;;;;;;18.00;1.25;;;6.20;99.90;;;;;;5028288;28;20106;-68
2022/12/30 06:55:40;;;;;;;0.10;0.10;;;6.20;99.90;;;;;;5028288;28;20518;-68
2022/12/30 06:58:06;;;;;;;0.10;0.10;;;6.10;99.90;;;;;;5029934;28;20041;-68
2022/12/30 07:00:32;;;;;;;0.10;0.10;;;6.10;99.90;;;;;;5029260;28;20056;-69
2022/12/30 07:02:58;;;;;;;0.10;0.10;;;6.00;99.90;;;;;;5031276;28;20049;-68
2022/12/30 07:05:24;;;;;;;1.23;1.20;;;6.00;99.90;;;;;;5030310;28;20045;-68
2022/12/30 07:07:50;;;;;;;0.10;0.10;;;5.90;99.90;;;;;;5029911;28;20102;-68
2022/12/30 07:10:15;;;;;;;0.10;0.10;;;5.90;99.90;;;;;;5026571;28;20057;-68
2022/12/30 07:12:41;;;;;;;0.55;0.55;;;5.80;99.90;;;;;;5029350;28;20397;-69
2022/12/30 07:15:07;;;;;;;0.10;0.10;;;5.80;99.90;;;;;;5030328;28;20038;-69
2022/12/30 07:17:33;;;;;;;2.42;2.08;;;5.80;99.90;;;;;;5031006;28;20052;-69
2022/12/30 07:19:58;;;;;;;0.45;0.45;;;5.80;99.90;;;;;;5028695;28;20045;-69
2022/12/30 07:22:24;;;;;;;0.10;0.10;;;5.80;99.90;;;;;;5025638;28;20107;-69
2022/12/30 07:24:50;;;;;;;0.47;0.47;;;5.70;99.90;;;;;;5028948;28;20499;-70
2022/12/30 07:27:15;;;;;;;1.08;0.35;;;5.80;99.90;;;;;;5027432;28;22577;-69
2022/12/30 07:29:41;;;;;;;0.10;0.10;;;5.80;99.90;;;;;;5030908;28;20044;-70
2022/12/30 07:32:07;;;;;;;0.10;0.10;;;5.80;99.90;;;;;;5026715;28;20206;-69
2022/12/30 07:34:42;;;;;;;6.22;1.35;;;5.70;99.90;;;;;;5026312;28;20231;-70
2022/12/30 07:37:08;;;;;;;0.20;0.20;;;5.70;99.90;;;;;;5029979;28;20037;-69
2022/12/30 07:39:33;;;;;;;0.10;0.10;;;5.70;99.90;;;;;;5027569;28;20426;-69
2022/12/30 07:41:59;;;;;;;0.10;0.10;;;5.70;99.90;;;;;;5026989;28;20121;-69
2022/12/30 07:44:24;;;;;;;4.30;2.00;;;5.70;99.90;;;;;;5030227;28;20037;-70
2022/12/30 07:46:50;;;;;;;0.10;0.10;;;5.70;99.90;;;;;;5028224;28;20080;-69
2022/12/30 07:49:16;;;;;;;0.28;0.28;;;5.70;99.90;;;;;;5028892;28;20052;-69
2022/12/30 07:51:42;;;;;;;1.27;1.17;;;5.70;99.90;;;;;;5029349;28;20045;-70
2022/12/30 07:54:07;;;;;;;1.40;0.68;;;5.70;99.90;;;;;;5029941;28;20398;-70
2022/12/30 07:56:33;;;;;;;0.10;0.10;;;5.70;99.90;;;;;;5027648;28;20059;-69
2022/12/30 07:58:59;;;;;;;0.35;0.35;;;5.70;99.90;;;;;;5029296;28;20099;-70
2022/12/30 08:01:24;;;;;;;0.70;0.70;;;5.70;99.90;;;;;;5020311;28;20125;-70
2022/12/30 08:03:50;;;;;;;2.50;1.02;;;5.70;99.90;;;;;;5028327;28;20091;-70
2022/12/30 08:06:18;;;;;;;0.10;0.10;;;5.70;99.90;;;;;;5044890;28;20046;-69
2022/12/30 08:08:45;;;;;;;0.10;0.10;;;5.70;99.90;;;;;;5024599;28;20572;-70
2022/12/30 08:11:12;;;;;;;0.32;0.32;;;5.70;99.90;;;;;;5023773;28;20061;-69
2022/12/30 08:13:40;;;;;;;0.10;0.10;;;5.70;99.90;;;;;;5028719;28;20041;-69
2022/12/30 08:16:11;;;;;;;0.90;0.90;;;5.70;99.90;;;;;;5028766;28;20038;-70
2022/12/30 08:18:36;;;;;;;0.10;0.10;;;5.60;99.90;;;;;;5029461;28;20136;-70
2022/12/30 08:21:04;;;;;;;0.10;0.10;;;5.70;99.90;;;;;;5028049;28;20140;-69
2022/12/30 08:23:30;;;;;;;0.10;0.10;;;5.60;99.90;;;;;;5027321;28;20037;-70
2022/12/30 08:26:01;;;;;;;0.10;0.10;;;5.60;99.90;;;;;;5025991;28;20333;-70
2022/12/30 08:28:27;;;;;;;0.10;0.10;;;5.60;99.90;;;;;;5022458;28;20041;-70
2022/12/30 08:30:53;;;;;;;0.30;0.30;;;5.60;99.90;;;;;;5027138;28;20095;-71
2022/12/30 08:33:18;;;;;;;0.45;0.45;;;5.70;99.90;;;;;;5026051;28;20077;-69
2022/12/30 08:35:44;;;;;;;0.20;0.20;;;5.70;99.90;;;;;;5040320;28;20401;-71
2022/12/30 08:38:09;;;;;;;0.10;0.10;;;5.70;99.90;;;;;;5027264;28;20590;-69
2022/12/30 08:40:35;;;;;;;0.35;0.30;;;5.70;99.90;;;;;;5024967;28;20074;-69
2022/12/30 08:43:00;;;;;;;0.13;0.13;;;5.70;99.90;;;;;;5022023;28;20046;-69
2022/12/30 08:45:26;;;;;;;0.10;0.10;;;5.70;99.90;;;;;;5024772;28;20045;-69
2022/12/30 08:47:52;;;;;;;0.10;0.10;;;5.70;99.90;;;;;;5025521;28;20417;-67
2022/12/30 08:50:18;;;;;;;0.50;0.50;;;5.70;99.90;;;;;;5023647;28;20060;-68
2022/12/30 08:52:43;;;;;;;0.10;0.10;;;5.80;99.90;;;;;;5025141;28;20489;-67
2022/12/30 08:55:09;;;;;;;8.43;2.85;;;5.80;99.90;;;;;;5023718;28;20049;-68
2022/12/30 08:57:38;;;;;;;0.10;0.10;;;5.80;99.90;;;;;;5023065;28;20048;-69
2022/12/30 09:00:04;;;;;;;0.47;0.47;;;5.80;99.90;;;;;;5025635;28;20053;-67
2022/12/30 09:02:31;;;;;;;1.23;0.63;;;5.80;99.90;;;;;;5023804;28;20611;-68
2022/12/30 09:04:57;;;;;;;16.98;1.30;;;5.80;99.90;;;;;;5022949;28;20481;-68
2022/12/30 09:07:22;;;;;;;0.20;0.20;;;5.80;99.90;;;;;;5028880;28;20052;-69
2022/12/30 09:09:48;;;;;;;0.10;0.10;;;5.80;99.90;;;;;;5027303;28;20053;-69
2022/12/30 09:12:14;;;;;;;0.85;0.85;;;5.80;99.90;;;;;;5024038;28;20065;-69
2022/12/30 09:14:40;;;;;;;2.03;0.95;;;5.80;99.90;;;;;;5025044;28;20053;-69
2022/12/30 09:17:05;;;;;;;0.10;0.10;;;5.80;99.90;;;;;;5028703;28;20042;-69
2022/12/30 09:19:31;;;;;;;0.10;0.10;;;5.80;99.90;;;;;;5025885;28;20545;-69
2022/12/30 09:21:57;;;;;;;1.23;0.63;;;5.80;99.90;;;;;;5028740;28;20687;-69
2022/12/30 09:24:22;;;;;;;0.10;0.10;;;5.80;99.90;;;;;;5025033;28;20044;-69
2022/12/30 09:26:48;;;;;;;0.10;0.10;;;5.80;99.90;;;;;;5023975;28;20037;-69
2022/12/30 09:29:16;;;;;;;0.60;0.57;;;5.80;99.90;;;;;;5017270;28;20037;-69
2022/12/30 09:31:41;;;;;;;0.10;0.10;;;5.80;99.90;;;;;;5020665;28;20672;-69
2022/12/30 09:34:07;;;;;;;0.10;0.10;;;5.80;99.90;;;;;;5027232;28;20037;-69
2022/12/30 09:36:32;;;;;;;0.95;0.95;;;5.90;99.90;;;;;;5024764;28;20410;-69
2022/12/30 09:38:58;;;;;;;0.10;0.10;;;5.90;99.90;;;;;;5020526;28;20049;-68
2022/12/30 09:44:45;;;;;;;0.10;0.10;;;5.90;99.90;;;;;;5023310;28;20572;-68
2022/12/30 09:47:31;;;;;;;0.43;0.43;;;6.00;99.90;;;;;;5024232;28;20053;-69
2022/12/30 09:50:05;;;;;;;0.10;0.10;;;6.00;99.90;;;;;;5028496;28;20131;-69
2022/12/30 09:52:52;;;;;;;0.40;0.40;;;6.10;99.90;;;;;;5026417;28;20076;-68
2022/12/30 09:55:27;;;;;;;0.10;0.10;;;6.10;99.90;;;;;;5023217;28;20053;-69
2022/12/30 09:57:58;;;;;;;0.00;0.00;;;6.10;99.90;;;;;;5025180;28;20038;-68
2022/12/30 10:00:26;;;;;;;0.00;0.00;;;6.20;99.90;;;;;;5017492;28;20045;-69
2022/12/30 10:03:17;;;;;;;0.10;0.10;;;6.20;99.90;;;;;;5025712;28;20053;-68
2022/12/30 10:05:58;;;;;;;0.20;0.20;;;6.30;99.90;;;;;;5022526;28;20084;-69
2022/12/30 10:08:33;;;;;;;1.65;1.15;;;6.30;99.90;;;;;;5027408;28;20045;-69
2022/12/30 10:11:29;;;;;;;0.32;0.32;;;6.40;99.90;;;;;;5020511;28;20137;-68
2022/12/30 10:14:09;;;;;;;0.10;0.10;;;6.30;99.90;;;;;;5030661;28;20661;-69
2022/12/30 10:16:38;;;;;;;1.05;0.98;;;6.40;99.90;;;;;;5027899;28;20048;-69
2022/12/30 10:19:34;;;;;;;0.38;0.38;;;6.40;99.90;;;;;;5034032;28;20056;-69
2022/12/30 10:22:30;;;;;;;0.32;0.32;;;6.50;99.90;;;;;;5031865;28;20041;-70
2022/12/30 10:25:07;;;;;;;0.15;0.15;;;6.50;99.90;;;;;;5024972;28;20056;-69
2022/12/30 10:27:56;;;;;;;0.10;0.10;;;6.60;99.90;;;;;;5031345;28;20041;-69
2022/12/30 10:30:24;;;;;;;0.43;0.43;;;6.70;99.90;;;;;;5020435;28;20048;-69
2022/12/30 10:33:04;;;;;;;0.10;0.10;;;6.70;99.90;;;;;;5029492;28;20057;-69
2022/12/30 10:35:31;;;;;;;1.45;1.35;;;6.70;99.90;;;;;;5023993;28;20452;-69
2022/12/30 10:38:09;;;;;;;1.40;0.85;;;6.70;99.90;;;;;;5033909;28;20053;-69
2022/12/30 10:40:41;;;;;;;0.10;0.10;;;6.80;99.90;;;;;;5032987;28;20037;-69
2022/12/30 10:43:32;;;;;;;7.03;1.75;;;6.80;99.90;;;;;;5033026;28;20053;-69
2022/12/30 10:46:20;;;;;;;0.68;0.68;;;6.80;99.90;;;;;;5026590;28;20077;-68
2022/12/30 10:49:13;;;;;;;0.38;0.30;;;6.80;99.90;;;;;;5033045;28;20123;-69
2022/12/30 10:51:40;;;;;;;0.57;0.57;;;6.90;99.90;;;;;;5026919;28;20120;-69
2022/12/30 10:54:08;;;;;;;2.50;1.45;;;6.90;99.90;;;;;;5032587;28;20056;-68
2022/12/30 10:56:35;;;;;;;0.20;0.20;;;6.90;99.90;;;;;;5031175;28;20507;-69
2022/12/30 10:59:10;;;;;;;0.10;0.10;;;7.00;99.90;;;;;;5033438;28;20045;-69
2022/12/30 11:01:37;;;;;;;0.10;0.10;;;7.00;99.90;;;;;;5029550;28;20042;-69
2022/12/30 11:04:03;;;;;;;0.10;0.10;;;7.00;99.90;;;;;;5033365;28;20568;-69
2022/12/30 11:06:36;;;;;;;0.38;0.38;;;7.00;99.90;;;;;;5033815;28;20128;-69
2022/12/30 11:09:11;;;;;;;0.30;0.30;;;7.00;99.90;;;;;;5033721;28;20145;-69
2022/12/30 11:14:43;;;;;;;0.10;0.10;;;7.00;99.90;;;;;;5026360;28;20083;-69
2022/12/30 11:17:38;;;;;;;0.10;0.10;;;7.00;99.90;;;;;;5031187;28;20427;-69
2022/12/30 11:20:19;;;;;;;1.10;1.00;;;7.10;99.90;;;;;;5032337;28;20491;-69
2022/12/30 11:22:49;;;;;;;0.22;0.22;;;7.10;99.90;;;;;;5032610;28;20405;-70
2022/12/30 11:25:35;;;;;;;0.10;0.10;;;7.10;99.90;;;;;;5031868;28;20046;-69
2022/12/30 11:28:04;;;;;;;0.10;0.10;;;7.10;99.90;;;;;;5030394;28;20078;-69
2022/12/30 11:30:36;;;;;;;0.00;0.00;;;7.20;99.90;;;;;;5028496;28;20041;-69
2022/12/30 11:33:05;;;;;;;0.00;0.00;;;7.20;99.90;;;;;;5023136;28;20049;-69
2022/12/30 11:35:33;;;;;;;0.00;0.00;;;7.20;99.90;;;;;;5027455;28;20034;-69
2022/12/30 11:37:59;;;;;;;0.28;0.28;;;7.20;99.90;;;;;;5026268;28;20390;-69
2022/12/30 11:40:25;;;;;;;0.73;0.70;;;7.20;99.90;;;;;;5023549;28;20044;-69
2022/12/30 11:43:08;;;;;;;7.93;2.05;;;7.30;99.90;;;;;;5024300;28;20081;-69
2022/12/30 11:45:34;;;;;;;0.10;0.10;;;7.30;99.90;;;;;;5028362;28;20045;-69
2022/12/30 11:47:59;;;;;;;0.10;0.10;;;7.30;99.90;;;;;;5015765;28;20053;-69
2022/12/30 11:50:25;;;;;;;0.10;0.10;;;7.30;99.90;;;;;;5010166;28;20049;-69
2022/12/30 11:52:54;;;;;;;0.10;0.10;;;7.30;99.90;;;;;;4991717;28;20054;-69
2022/12/30 11:55:25;;;;;;;0.73;0.73;;;7.30;99.90;;;;;;5009059;28;20050;-69
2022/12/30 11:57:51;;;;;;;0.10;0.10;;;7.30;99.90;;;;;;5008366;28;20125;-69
2022/12/30 12:00:17;;;;;;;0.20;0.20;;;7.40;99.90;;;;;;5011036;28;20034;-69
2022/12/30 12:02:48;;;;;;;0.88;0.52;;;7.40;99.90;;;;;;5008195;28;20069;-70
2022/12/30 12:05:20;;;;;;;0.22;0.22;;;7.40;99.90;;;;;;4991141;28;20045;-69
2022/12/30 12:07:49;;;;;;;0.10;0.10;;;7.40;99.90;;;;;;5009100;28;20073;-69
2022/12/30 12:10:24;;;;;;;0.10;0.10;;;7.50;99.90;;;;;;5010598;28;20042;-68
2022/12/30 12:13:01;;;;;;;0.10;0.10;;;7.50;99.90;;;;;;4988108;28;20049;-69
2022/12/30 12:15:35;;;;;;;0.10;0.10;;;7.60;99.90;;;;;;4990795;28;20075;-69
2022/12/30 12:18:27;;;;;;;0.20;0.20;;;7.60;99.90;;;;;;5009744;28;20077;-69
2022/12/30 12:21:11;;;;;;;0.10;0.10;;;7.70;99.90;;;;;;5008706;28;20034;-69
2022/12/30 12:24:01;;;;;;;0.10;0.10;;;7.80;99.90;;;;;;4988593;28;20050;-69
2022/12/30 12:26:38;;;;;;;0.10;0.10;;;7.80;99.90;;;;;;5008540;28;20053;-70
2022/12/30 12:29:04;;;;;;;0.03;0.03;;;7.90;99.90;;;;;;5003073;28;20052;-69
2022/12/30 12:31:48;;;;;;;0.10;0.10;;;7.90;99.90;;;;;;5009123;28;20520;-69
2022/12/30 12:34:28;;;;;;;0.10;0.10;;;8.00;99.90;;;;;;4999327;28;20049;-69
2022/12/30 12:36:56;;;;;;;0.20;0.20;;;8.10;99.90;;;;;;5003938;28;20042;-69
2022/12/30 12:39:42;;;;;;;0.10;0.10;;;8.10;99.90;;;;;;4990477;28;20047;-69
2022/12/30 12:42:15;;;;;;;0.10;0.10;;;8.10;99.90;;;;;;5010225;28;20042;-69
2022/12/30 12:45:11;;;;;;;0.10;0.10;;;8.10;99.90;;;;;;4989998;28;20074;-69
2022/12/30 12:47:52;;;;;;;0.00;0.00;;;8.20;99.90;;;;;;5012132;28;20068;-69
2022/12/30 12:50:45;;;;;;;0.10;0.10;;;8.20;99.90;;;;;;5026580;28;20095;-69
2022/12/30 12:53:46;;;;;;;0.10;0.10;;;8.10;99.90;;;;;;5028766;28;20048;-69
2022/12/30 12:56:50;;;;;;;0.15;0.15;;;8.10;99.90;;;;;;4997168;28;20057;-69
2022/12/30 12:59:34;;;;;;;0.22;0.22;;;8.20;99.90;;;;;;5023987;28;20433;-69
2022/12/30 13:02:05;;;;;;;28.90;1.33;;;8.20;99.90;;;;;;5028272;28;20073;-69
2022/12/30 13:04:58;;;;;;;0.40;0.40;;;8.20;99.90;;;;;;5028208;28;20071;-69
2022/12/30 13:07:55;;;;;;;0.10;0.10;;;8.20;99.90;;;;;;5024374;28;20119;-69
2022/12/30 13:10:44;;;;;;;0.10;0.10;;;8.20;99.90;;;;;;5025443;28;20532;-69
2022/12/30 13:13:20;;;;;;;0.10;0.10;;;8.20;99.90;;;;;;5027897;28;20087;-68
2022/12/30 13:15:58;;;;;;;0.00;0.00;;;8.20;99.90;;;;;;5019449;28;20623;-68
2022/12/30 13:18:27;;;;;;;0.00;0.00;;;8.10;99.90;;;;;;5015681;28;20386;-68
2022/12/30 13:20:56;;;;;;;0.10;0.10;;;8.20;99.90;;;;;;5028596;28;20052;-68
2022/12/30 13:23:29;;;;;;;0.10;0.10;;;8.20;99.90;;;;;;5028379;28;20046;-66
2022/12/30 13:25:59;;;;;;;0.75;0.55;;;8.20;99.90;;;;;;5026806;28;20053;-66
2022/12/30 13:28:27;;;;;;;8.50;2.17;;;8.20;99.90;;;;;;5026003;28;20076;-67
2022/12/30 13:31:23;;;;;;;2.85;0.57;;;8.20;99.90;;;;;;5026507;28;20057;-67
2022/12/30 13:34:00;;;;;;;0.45;0.45;;;8.20;99.90;;;;;;5025648;28;20735;-66
2022/12/30 13:36:37;;;;;;;0.20;0.20;;;8.20;99.90;;;;;;5024074;28;20092;-69
2022/12/30 13:39:14;;;;;;;0.35;0.35;;;8.30;99.90;;;;;;5023686;28;20405;-69
2022/12/30 13:41:51;;;;;;;0.10;0.10;;;8.30;99.90;;;;;;5024536;28;20405;-69
2022/12/30 13:44:19;;;;;;;1.23;0.77;;;8.30;99.90;;;;;;5024783;28;20056;-68
2022/12/30 13:46:50;;;;;;;0.10;0.10;;;8.30;99.90;;;;;;5025741;28;20059;-70
2022/12/30 13:49:29;;;;;;;0.13;0.13;;;8.30;99.90;;;;;;5027351;28;20046;-69
2022/12/30 13:52:18;;;;;;;2.38;1.23;;;8.40;99.90;;;;;;5016907;28;20123;-70
2022/12/30 13:54:50;;;;;;;0.70;0.70;;;8.30;99.90;;;;;;5026310;28;20102;-69
2022/12/30 13:57:32;;;;;;;0.10;0.10;;;8.30;99.90;;;;;;5024043;28;20050;-69
2022/12/30 14:00:34;;;;;;;0.95;0.95;;;8.30;99.90;;;;;;5028085;28;20489;-69
2022/12/30 14:03:10;;;;;;;0.65;0.65;;;8.30;99.90;;;;;;5023482;28;20057;-69
2022/12/30 14:05:39;;;;;;;0.10;0.10;;;8.40;99.90;;;;;;5027086;28;20072;-68
2022/12/30 14:08:20;;;;;;;0.10;0.10;;;8.40;99.90;;;;;;5020456;28;20054;-69
2022/12/30 14:11:01;;;;;;;0.10;0.10;;;8.40;99.90;;;;;;5026659;28;20196;-71
2022/12/30 14:13:26;;;;;;;0.10;0.10;;;8.40;99.90;;;;;;5023207;28;20049;-69
2022/12/30 14:15:55;;;;;;;0.20;0.20;;;8.40;99.90;;;;;;5015263;28;20440;-70